createdAt,value
2022-09-07T00:00:53.719Z,21.65
2022-09-07T00:03:21.023Z,21.77
2022-09-07T00:05:50.002Z,20.02
2022-09-07T00:08:18.438Z,17.60
2022-09-07T00:10:55.670Z,21.27
2022-09-07T00:13:23.720Z,18.73
2022-09-07T00:15:50.511Z,18.58
2022-09-07T00:18:17.636Z,20.17
2022-09-07T00:20:44.145Z,22.85
2022-09-07T00:23:11.097Z,21.55
2022-09-07T00:25:39.287Z,24.02
2022-09-07T00:28:07.884Z,21.48
2022-09-07T00:30:40.017Z,21.80
2022-09-07T00:33:06.444Z,21.58
2022-09-07T00:35:32.879Z,22.63
2022-09-07T00:37:59.335Z,22.80
2022-09-07T00:40:25.775Z,21.98
2022-09-07T00:42:52.216Z,22.42
2022-09-07T00:45:20.752Z,21.25
2022-09-07T00:47:47.159Z,23.35
2022-09-07T00:50:45.817Z,24.15
2022-09-07T00:53:27.257Z,23.58
2022-09-07T00:55:54.398Z,23.70
2022-09-07T00:58:22.523Z,20.40
2022-09-07T01:00:50.603Z,21.65
2022-09-07T01:03:22.988Z,24.10
2022-09-07T01:06:05.708Z,24.25
2022-09-07T01:08:32.958Z,23.33
2022-09-07T01:11:01.066Z,25.70
2022-09-07T01:13:27.730Z,25.42
2022-09-07T01:16:35.772Z,22.58
2022-09-07T01:19:23.579Z,24.48
2022-09-07T01:22:34.652Z,23.95
2022-09-07T01:25:05.259Z,23.42
2022-09-07T01:30:06.848Z,23.15
2022-09-07T01:32:48.578Z,22.33
2022-09-07T01:35:22.844Z,26.85
2022-09-07T01:38:13.889Z,26.58
2022-09-07T01:40:52.033Z,27.48
2022-09-07T01:43:42.667Z,24.17
2022-09-07T01:46:20.986Z,25.30
2022-09-07T01:48:52.393Z,25.20
2022-09-07T01:51:23.282Z,24.27
2022-09-07T01:53:53.726Z,24.50
2022-09-07T01:56:40.801Z,25.73
2022-09-07T01:59:20.866Z,24.95
2022-09-07T02:02:00.514Z,28.42
2022-09-07T02:04:35.890Z,26.73
2022-09-07T02:07:02.292Z,24.95
2022-09-07T02:09:40.004Z,27.10
2022-09-07T02:12:15.881Z,27.17
2022-09-07T02:14:52.545Z,28.23
2022-09-07T02:17:29.530Z,26.50
2022-09-07T02:20:04.497Z,25.83
2022-09-07T02:22:35.076Z,27.75
2022-09-07T02:25:04.567Z,26.58
2022-09-07T02:27:46.135Z,28.02
2022-09-07T02:30:13.320Z,27.35
2022-09-07T02:32:39.958Z,28.38
2022-09-07T02:35:07.290Z,28.52
2022-09-07T02:37:35.064Z,28.08
2022-09-07T02:40:01.860Z,27.45
2022-09-07T02:42:31.719Z,27.00
2022-09-07T02:44:58.785Z,27.60
2022-09-07T02:47:44.036Z,28.10
2022-09-07T02:50:31.823Z,27.05
2022-09-07T02:53:36.799Z,29.65
2022-09-07T02:56:19.714Z,27.25
2022-09-07T02:58:58.287Z,26.08
2022-09-07T03:01:51.435Z,27.00
2022-09-07T03:04:33.505Z,27.13
2022-09-07T03:07:09.848Z,29.00
2022-09-07T03:09:41.891Z,26.17
2022-09-07T03:12:09.065Z,27.20
2022-09-07T03:14:39.970Z,26.58
2022-09-07T03:17:07.167Z,25.10
2022-09-07T03:19:33.792Z,26.45
2022-09-07T03:22:00.239Z,27.23
2022-09-07T03:24:26.673Z,27.10
2022-09-07T03:26:53.165Z,27.48
2022-09-07T03:29:19.681Z,29.10
2022-09-07T03:31:46.336Z,27.85
2022-09-07T03:34:13.015Z,29.58
2022-09-07T03:36:39.469Z,28.50
2022-09-07T03:39:07.310Z,29.85
2022-09-07T03:41:34.360Z,29.33
2022-09-07T03:44:08.047Z,26.15
2022-09-07T03:46:35.130Z,28.65
2022-09-07T03:49:01.698Z,28.63
2022-09-07T03:51:28.175Z,27.80
2022-09-07T03:53:54.636Z,26.42
2022-09-07T03:56:23.421Z,29.55
2022-09-07T03:58:50.802Z,26.98
2022-09-07T04:01:20.212Z,28.42
2022-09-07T04:03:47.900Z,29.65
2022-09-07T04:06:15.943Z,29.55
2022-09-07T04:08:42.911Z,28.90
2022-09-07T04:11:13.337Z,31.10
2022-09-07T04:13:40.265Z,30.40
2022-09-07T04:16:21.084Z,31.13
2022-09-07T04:21:20.897Z,31.40
2022-09-07T04:23:48.348Z,33.95
2022-09-07T04:26:17.657Z,32.65
2022-09-07T04:28:45.557Z,34.90
2022-09-07T04:31:12.891Z,33.22
2022-09-07T04:33:39.484Z,33.72
2022-09-07T04:36:06.144Z,32.20
2022-09-07T04:38:32.721Z,34.90
2022-09-07T04:41:06.533Z,33.85
2022-09-07T04:43:32.967Z,34.03
2022-09-07T04:46:06.094Z,34.95
2022-09-07T04:48:33.016Z,33.03
2022-09-07T04:51:07.572Z,33.42
2022-09-07T04:53:35.747Z,33.20
2022-09-07T04:56:02.658Z,33.63
2022-09-07T04:58:29.478Z,35.40
2022-09-07T05:01:01.791Z,34.05
2022-09-07T05:03:30.405Z,34.33
2022-09-07T05:05:56.854Z,31.13
2022-09-07T05:08:23.327Z,30.65
2022-09-07T05:10:53.803Z,34.78
2022-09-07T05:13:20.728Z,32.60
2022-09-07T05:15:47.421Z,32.30
2022-09-07T05:18:13.925Z,33.22
2022-09-07T05:20:41.802Z,32.83
2022-09-07T05:23:08.948Z,33.05
2022-09-07T05:25:42.223Z,32.60
2022-09-07T05:28:09.323Z,32.95
2022-09-07T05:33:22.430Z,31.65
2022-09-07T05:35:58.700Z,31.42
2022-09-07T05:38:25.743Z,31.88
2022-09-07T05:40:52.513Z,29.42
2022-09-07T05:43:19.008Z,30.10
2022-09-07T05:45:45.836Z,30.58
2022-09-07T05:48:12.279Z,31.60
2022-09-07T05:50:38.832Z,29.48
2022-09-07T05:53:05.290Z,31.02
2022-09-07T05:55:32.090Z,30.73
2022-09-07T05:57:58.562Z,29.67
2022-09-07T06:00:25.026Z,30.80
2022-09-07T06:02:51.560Z,30.48
2022-09-07T06:05:18.105Z,29.52
2022-09-07T06:07:48.098Z,28.85
2022-09-07T06:13:01.681Z,20.58
2022-09-07T06:15:28.324Z,27.75
2022-09-07T06:17:54.830Z,26.25
2022-09-07T06:20:21.278Z,28.77
2022-09-07T06:22:47.710Z,26.38
2022-09-07T06:25:14.332Z,28.20
2022-09-07T06:27:40.772Z,26.98
2022-09-07T06:30:07.733Z,26.63
2022-09-07T06:32:45.530Z,24.05
2022-09-07T06:35:13.513Z,26.17
2022-09-07T06:37:40.424Z,25.42
2022-09-07T06:40:08.339Z,23.95
2022-09-07T06:42:36.151Z,28.05
2022-09-07T06:45:02.797Z,25.42
2022-09-07T06:47:29.240Z,20.92
2022-09-07T06:49:55.712Z,21.10
2022-09-07T06:52:22.548Z,21.25
2022-09-07T06:55:04.420Z,20.67
2022-09-07T06:57:30.912Z,25.00
2022-09-07T06:59:57.373Z,28.67
2022-09-07T07:02:23.804Z,23.98
2022-09-07T07:04:50.294Z,21.25
2022-09-07T07:07:16.727Z,28.42
2022-09-07T07:09:43.219Z,24.40
2022-09-07T07:12:11.155Z,23.83
2022-09-07T07:14:40.966Z,25.65
2022-09-07T07:17:09.109Z,23.92
2022-09-07T07:19:35.562Z,22.73
2022-09-07T07:24:48.494Z,23.38
2022-09-07T07:27:15.097Z,24.42
2022-09-07T07:29:41.524Z,21.88
2022-09-07T07:32:07.965Z,23.38
2022-09-07T07:34:34.419Z,22.98
2022-09-07T07:37:00.847Z,22.58
2022-09-07T07:42:13.628Z,20.38
2022-09-07T07:44:40.167Z,22.45
2022-09-07T07:47:06.648Z,23.67
2022-09-07T07:49:33.061Z,22.50
2022-09-07T07:54:46.101Z,21.83
2022-09-07T07:57:12.680Z,21.52
2022-09-07T07:59:39.419Z,21.88
2022-09-07T08:02:08.672Z,24.02
2022-09-07T08:04:35.854Z,20.55
2022-09-07T08:07:08.647Z,19.33
2022-09-07T08:09:37.223Z,22.98
2022-09-07T08:12:04.017Z,22.10
2022-09-07T08:14:30.436Z,22.00
2022-09-07T08:16:56.866Z,18.95
2022-09-07T08:19:23.280Z,18.23
2022-09-07T08:21:49.648Z,19.45
2022-09-07T08:24:16.041Z,17.63
2022-09-07T08:26:42.632Z,15.70
2022-09-07T08:29:09.025Z,16.05
2022-09-07T08:31:35.608Z,15.48
2022-09-07T08:34:02.139Z,15.45
2022-09-07T08:36:31.608Z,17.05
2022-09-07T08:38:58.021Z,15.23
2022-09-07T08:41:46.611Z,12.98
2022-09-07T08:44:20.948Z,11.30
2022-09-07T08:47:01.706Z,11.85
2022-09-07T08:49:46.501Z,10.73
2022-09-07T08:52:18.929Z,10.48
2022-09-07T08:54:58.449Z,11.00
2022-09-07T08:57:30.512Z,9.85
2022-09-07T09:00:22.477Z,9.40
2022-09-07T09:03:28.753Z,9.27
2022-09-07T09:05:57.202Z,7.43
2022-09-07T09:09:15.118Z,8.07
2022-09-07T09:12:19.373Z,8.15
2022-09-07T09:15:13.472Z,7.57
2022-09-07T09:17:56.349Z,7.78
2022-09-07T09:20:35.438Z,7.57
2022-09-07T09:23:12.400Z,8.55
2022-09-07T09:25:51.184Z,8.57
2022-09-07T09:28:17.911Z,7.78
2022-09-07T09:30:44.810Z,8.50
2022-09-07T09:33:21.839Z,6.88
2022-09-07T09:35:51.211Z,6.90
2022-09-07T09:38:30.010Z,6.95
2022-09-07T09:41:04.035Z,7.95
2022-09-07T09:43:53.861Z,6.55
2022-09-07T09:49:34.242Z,8.55
2022-09-07T09:54:53.717Z,7.70
2022-09-07T10:00:36.256Z,8.02
2022-09-07T10:05:52.197Z,7.60
2022-09-07T10:08:21.375Z,6.65
2022-09-07T10:10:56.841Z,9.05
2022-09-07T10:13:27.995Z,6.70
2022-09-07T10:15:56.767Z,7.22
2022-09-07T10:18:56.812Z,6.80
2022-09-07T10:21:26.812Z,6.55
2022-09-07T10:24:06.140Z,8.70
2022-09-07T10:26:38.220Z,7.65
2022-09-07T10:29:25.559Z,9.10
2022-09-07T10:32:18.328Z,6.93
2022-09-07T10:34:56.568Z,8.93
2022-09-07T10:37:34.171Z,8.02
2022-09-07T10:40:18.229Z,8.57
2022-09-07T10:46:56.291Z,9.52
2022-09-07T10:49:23.612Z,11.00
2022-09-07T10:52:38.124Z,11.95
2022-09-07T10:55:15.781Z,12.00
2022-09-07T10:58:00.908Z,12.52
2022-09-07T11:00:36.385Z,13.63
2022-09-07T11:03:26.169Z,16.65
2022-09-07T11:06:14.802Z,12.02
2022-09-07T11:09:16.963Z,14.80
2022-09-07T11:12:01.357Z,12.85
2022-09-07T11:14:31.716Z,13.23
2022-09-07T11:17:03.657Z,19.00
2022-09-07T11:19:51.769Z,18.55
2022-09-07T11:22:18.208Z,18.25
2022-09-07T11:28:03.765Z,15.45
2022-09-07T11:30:35.708Z,17.38
2022-09-07T11:33:11.573Z,21.73
2022-09-07T11:35:47.184Z,19.80
2022-09-07T11:38:23.470Z,20.33
2022-09-07T11:41:08.603Z,19.73
2022-09-07T11:43:41.297Z,21.13
2022-09-07T11:46:15.650Z,19.35
2022-09-07T11:48:46.989Z,19.48
2022-09-07T11:51:21.315Z,19.77
2022-09-07T11:53:54.004Z,18.58
2022-09-07T11:56:37.265Z,21.63
2022-09-07T11:59:36.989Z,18.33
2022-09-07T12:02:15.407Z,18.80
2022-09-07T12:05:00.069Z,20.35
2022-09-07T12:08:05.054Z,19.70
2022-09-07T12:11:10.134Z,18.73
2022-09-07T12:13:45.432Z,19.05
2022-09-07T12:16:17.870Z,19.88
2022-09-07T12:19:04.819Z,20.10
2022-09-07T12:21:40.315Z,18.63
2022-09-07T12:24:35.420Z,20.50
2022-09-07T12:27:03.903Z,18.38
2022-09-07T12:29:31.041Z,20.52
2022-09-07T12:34:55.623Z,15.82
2022-09-07T12:37:40.506Z,17.63
2022-09-07T12:40:28.624Z,18.77
2022-09-07T12:43:13.153Z,19.70
2022-09-07T12:45:39.528Z,17.67
2022-09-07T12:48:46.645Z,17.05
2022-09-07T12:54:15.356Z,16.17
2022-09-07T12:56:41.962Z,17.10
2022-09-07T12:59:56.953Z,17.15
2022-09-07T13:02:50.764Z,16.42
2022-09-07T13:05:29.021Z,14.98
2022-09-07T13:08:07.981Z,12.35
2022-09-07T13:10:38.028Z,11.27
2022-09-07T13:13:16.834Z,12.38
2022-09-07T13:15:43.588Z,16.52
2022-09-07T13:18:30.328Z,13.35
2022-09-07T13:21:08.648Z,14.25
2022-09-07T13:27:05.577Z,14.45
2022-09-07T13:29:41.061Z,11.82
2022-09-07T13:32:10.936Z,12.73
2022-09-07T13:34:48.696Z,12.07
2022-09-07T13:37:19.323Z,13.02
2022-09-07T13:39:48.490Z,10.50
2022-09-07T13:42:17.658Z,12.65
2022-09-07T13:44:53.264Z,12.32
2022-09-07T13:47:42.967Z,15.35
2022-09-07T13:50:17.761Z,14.23
2022-09-07T13:53:21.953Z,13.93
2022-09-07T13:55:54.457Z,12.68
2022-09-07T13:58:34.918Z,11.70
2022-09-07T14:03:39.222Z,10.77
2022-09-07T14:06:20.802Z,9.15
2022-09-07T14:08:55.398Z,9.43
2022-09-07T14:11:42.380Z,12.63
2022-09-07T14:14:11.786Z,10.02
2022-09-07T14:16:38.741Z,10.38
2022-09-07T14:19:17.093Z,10.25
2022-09-07T14:21:43.814Z,10.75
2022-09-07T14:24:29.487Z,10.18
2022-09-07T14:26:56.174Z,9.75
2022-09-07T14:29:25.055Z,9.20
2022-09-07T14:31:52.212Z,11.18
2022-09-07T14:34:23.262Z,7.93
2022-09-07T14:36:51.362Z,9.07
2022-09-07T14:39:20.974Z,6.47
2022-09-07T14:41:48.078Z,7.00
2022-09-07T14:44:46.980Z,7.80
2022-09-07T14:47:23.280Z,6.80
2022-09-07T14:49:52.541Z,6.75
2022-09-07T14:52:24.793Z,4.97
2022-09-07T14:54:52.723Z,6.95
2022-09-07T14:57:19.229Z,7.07
2022-09-07T14:59:47.946Z,5.90
2022-09-07T15:02:24.058Z,6.32
2022-09-07T15:05:23.081Z,6.13
2022-09-07T15:07:54.603Z,5.80
2022-09-07T15:10:20.965Z,6.05
2022-09-07T15:12:58.929Z,8.05
2022-09-07T15:15:29.682Z,5.18
2022-09-07T15:18:03.147Z,6.82
2022-09-07T15:20:32.482Z,6.15
2022-09-07T15:22:59.343Z,7.78
2022-09-07T15:25:25.789Z,6.55
2022-09-07T15:27:53.940Z,5.63
2022-09-07T15:30:20.517Z,6.32
2022-09-07T15:32:46.982Z,5.78
2022-09-07T15:35:13.576Z,4.68
2022-09-07T15:40:28.401Z,6.18
2022-09-07T15:43:08.570Z,6.25
2022-09-07T15:45:40.459Z,6.78
2022-09-07T15:48:07.156Z,5.65
2022-09-07T15:50:33.659Z,6.38
2022-09-07T15:53:00.870Z,6.93
2022-09-07T15:55:27.732Z,7.05
2022-09-07T15:58:08.754Z,8.02
2022-09-07T16:00:38.391Z,6.20
2022-09-07T16:03:05.830Z,6.43
2022-09-07T16:05:33.526Z,5.30
2022-09-07T16:10:53.497Z,5.40
2022-09-07T16:13:20.421Z,5.63
2022-09-07T16:15:48.804Z,7.63
2022-09-07T16:18:17.571Z,8.60
2022-09-07T16:20:44.672Z,7.47
2022-09-07T16:23:14.242Z,8.18
2022-09-07T16:25:43.101Z,7.38
2022-09-07T16:28:10.071Z,6.78
2022-09-07T16:30:40.356Z,6.88
2022-09-07T16:35:33.308Z,7.57
2022-09-07T16:40:46.457Z,6.97
2022-09-07T16:43:12.900Z,9.75
2022-09-07T16:48:25.661Z,7.90
2022-09-07T16:50:58.938Z,8.90
2022-09-07T16:53:28.840Z,9.02
2022-09-07T16:56:06.896Z,10.50
2022-09-07T16:58:37.422Z,9.07
2022-09-07T17:01:09.249Z,8.68
2022-09-07T17:03:36.929Z,9.20
2022-09-07T17:06:05.221Z,9.60
2022-09-07T17:08:33.375Z,9.48
2022-09-07T17:11:08.475Z,8.88
2022-09-07T17:13:36.806Z,9.80
2022-09-07T17:16:15.269Z,10.10
2022-09-07T17:21:33.850Z,8.88
2022-09-07T17:24:03.849Z,8.80
2022-09-07T17:26:31.680Z,7.35
2022-09-07T17:29:01.716Z,7.07
2022-09-07T17:34:17.791Z,7.90
2022-09-07T17:36:44.482Z,7.88
2022-09-07T17:39:16.042Z,6.57
2022-09-07T17:41:44.223Z,6.28
2022-09-07T17:44:11.090Z,5.60
2022-09-07T17:46:37.581Z,6.68
2022-09-07T17:49:06.918Z,7.90
2022-09-07T17:51:33.424Z,8.35
2022-09-07T17:54:02.969Z,7.15
2022-09-07T17:56:31.337Z,8.10
2022-09-07T18:01:45.845Z,8.90
2022-09-07T18:04:13.161Z,7.15
2022-09-07T18:06:41.040Z,7.85
2022-09-07T18:09:07.883Z,9.25
2022-09-07T18:11:50.543Z,6.45
2022-09-07T18:14:18.445Z,7.68
2022-09-07T18:16:47.847Z,7.68
2022-09-07T18:19:15.395Z,7.05
2022-09-07T18:21:43.585Z,6.40
2022-09-07T18:24:22.319Z,6.97
2022-09-07T18:26:52.111Z,9.88
2022-09-07T18:29:31.272Z,10.05
2022-09-07T18:32:00.321Z,10.85
2022-09-07T18:34:28.577Z,10.57
2022-09-07T18:36:55.354Z,11.68
2022-09-07T18:39:21.938Z,12.48
2022-09-07T18:41:48.316Z,14.60
2022-09-07T18:47:01.201Z,12.43
2022-09-07T18:49:27.605Z,12.32
2022-09-07T18:54:41.381Z,12.10
2022-09-07T18:57:08.188Z,12.98
2022-09-07T18:59:34.587Z,14.73
2022-09-07T19:02:04.549Z,11.73
2022-09-07T19:07:20.474Z,11.57
2022-09-07T19:09:48.134Z,13.80
2022-09-07T19:12:14.752Z,12.27
2022-09-07T19:14:42.123Z,11.27
2022-09-07T19:17:10.798Z,10.82
2022-09-07T19:19:38.297Z,12.27
2022-09-07T19:22:04.910Z,13.35
2022-09-07T19:24:31.834Z,14.10
2022-09-07T19:27:00.693Z,11.98
2022-09-07T19:29:27.735Z,14.05
2022-09-07T19:32:07.586Z,12.25
2022-09-07T19:34:39.366Z,12.38
2022-09-07T19:37:08.164Z,12.38
2022-09-07T19:39:34.755Z,13.30
2022-09-07T19:42:02.873Z,13.40
2022-09-07T19:44:29.298Z,13.13
2022-09-07T19:46:55.950Z,12.40
2022-09-07T19:49:22.717Z,12.85
2022-09-07T19:51:51.649Z,12.57
2022-09-07T19:54:18.356Z,11.98
2022-09-07T19:56:44.854Z,13.77
2022-09-07T19:59:12.289Z,14.15
2022-09-07T20:01:40.469Z,13.57
2022-09-07T20:04:19.691Z,14.32
2022-09-07T20:06:48.008Z,14.57
2022-09-07T20:09:14.410Z,17.20
2022-09-07T20:11:46.091Z,15.35
2022-09-07T20:14:13.799Z,15.00
2022-09-07T20:16:41.504Z,16.92
2022-09-07T20:19:08.216Z,14.95
2022-09-07T20:21:36.787Z,15.60
2022-09-07T20:24:03.778Z,19.33
2022-09-07T20:26:33.085Z,19.00
2022-09-07T20:29:23.430Z,18.70
2022-09-07T20:31:47.094Z,19.85
2022-09-07T20:34:14.194Z,21.00
2022-09-07T20:36:40.647Z,20.23
2022-09-07T20:39:07.267Z,21.42
2022-09-07T20:41:34.752Z,21.63
2022-09-07T20:44:03.288Z,21.23
2022-09-07T20:46:31.221Z,18.90
2022-09-07T20:48:57.974Z,19.75
2022-09-07T20:51:24.406Z,21.45
2022-09-07T20:53:50.965Z,19.75
2022-09-07T20:56:26.241Z,19.40
2022-09-07T20:59:01.776Z,17.40
2022-09-07T21:01:30.212Z,17.40
2022-09-07T21:03:58.461Z,18.63
2022-09-07T21:06:26.315Z,17.95
2022-09-07T21:08:53.432Z,16.83
2022-09-07T21:11:22.802Z,17.23
2022-09-07T21:14:06.175Z,16.58
2022-09-07T21:16:33.530Z,15.63
2022-09-07T21:19:01.518Z,16.65
2022-09-07T21:21:29.476Z,16.75
2022-09-07T21:24:00.700Z,15.77
2022-09-07T21:26:28.391Z,15.82
2022-09-07T21:29:03.750Z,15.48
2022-09-07T21:31:31.834Z,16.52
2022-09-07T21:34:00.281Z,16.63
2022-09-07T21:36:27.301Z,15.77
2022-09-07T21:38:54.646Z,17.23
2022-09-07T21:41:23.375Z,16.65
2022-09-07T21:43:54.932Z,16.35
2022-09-07T21:46:21.406Z,15.02
2022-09-07T21:48:48.030Z,15.02
2022-09-07T21:51:15.321Z,15.30
2022-09-07T21:53:43.491Z,14.95
2022-09-07T21:56:15.060Z,12.68
2022-09-07T21:58:41.539Z,13.93
2022-09-07T22:01:10.916Z,14.35
2022-09-07T22:03:39.153Z,13.18
2022-09-07T22:06:05.933Z,12.30
2022-09-07T22:08:34.224Z,13.07
2022-09-07T22:11:06.174Z,11.43
2022-09-07T22:13:32.861Z,11.20
2022-09-07T22:15:59.525Z,10.88
2022-09-07T22:18:26.054Z,11.38
2022-09-07T22:21:11.232Z,10.75
2022-09-07T22:23:40.613Z,11.35
2022-09-07T22:26:08.187Z,11.65
2022-09-07T22:28:35.319Z,10.98
2022-09-07T22:31:15.996Z,12.18
2022-09-07T22:36:14.094Z,10.48
2022-09-07T22:38:41.593Z,12.82
2022-09-07T22:41:14.351Z,11.82
2022-09-07T22:43:41.324Z,12.15
2022-09-07T22:46:08.017Z,13.00
2022-09-07T22:48:34.918Z,11.95
2022-09-07T22:51:02.793Z,12.73
2022-09-07T22:53:32.062Z,11.45
2022-09-07T22:55:58.947Z,12.45
2022-09-07T22:58:28.842Z,13.00
2022-09-07T23:01:01.397Z,12.37
2022-09-07T23:03:29.171Z,11.55
2022-09-07T23:05:57.005Z,11.88
2022-09-07T23:08:24.361Z,13.00
2022-09-07T23:10:50.976Z,13.02
2022-09-07T23:13:19.055Z,12.23
2022-09-07T23:15:47.004Z,14.73
2022-09-07T23:18:19.344Z,13.00
2022-09-07T23:20:46.532Z,15.13
2022-09-07T23:23:13.308Z,14.50
2022-09-07T23:25:42.030Z,14.50
2022-09-07T23:28:12.300Z,15.93
2022-09-07T23:30:42.464Z,15.98
2022-09-07T23:33:08.914Z,15.40
2022-09-07T23:35:35.286Z,15.15
2022-09-07T23:38:01.732Z,15.25
2022-09-07T23:40:30.264Z,15.40
2022-09-07T23:42:56.703Z,13.80
2022-09-07T23:45:23.092Z,14.80
2022-09-07T23:47:49.998Z,14.52
2022-09-07T23:50:16.535Z,15.55
2022-09-07T23:52:43.036Z,16.05
2022-09-07T23:55:10.949Z,15.93
2022-09-07T23:57:38.188Z,14.27
